Time;durP1;ratioP1;P1;durP2;ratioP2;P2;SDS_P1;SDS_P2;PMS_P1;PMS_P2;Temp;Humidity;BMP_temperature;BMP_pressure;BME280_temperature;BME280_humidity;BME280_pressure;Samples;Min_cycle;Max_cycle;Signal;HPM_P1;HPM_P2
2022/12/24 00:04:46;;;;;;;14.10;6.80;;;21.40;67.10;;;;;;211807;1311;22488;-61
2022/12/24 00:09:50;;;;;;;14.10;7.30;;;21.30;66.90;;;;;;211862;1311;22497;-60
2022/12/24 00:14:54;;;;;;;18.30;7.80;;;21.30;66.60;;;;;;211946;1303;180696;-60
2022/12/24 00:19:58;;;;;;;14.40;6.20;;;21.30;66.30;;;;;;212074;1305;22485;-59
2022/12/24 00:25:03;;;;;;;17.10;6.60;;;21.30;66.10;;;;;;212101;1315;22669;-60
2022/12/24 00:30:07;;;;;;;12.30;6.60;;;21.20;66.40;;;;;;212010;1302;22485;-60
2022/12/24 00:35:11;;;;;;;14.20;6.70;;;21.20;65.90;;;;;;211995;1309;22598;-60
2022/12/24 00:40:17;;;;;;;11.30;5.50;;;21.20;66.00;;;;;;211989;1316;26489;-59
2022/12/24 00:45:21;;;;;;;14.30;6.60;;;21.20;65.50;;;;;;212035;1310;22475;-62
2022/12/24 00:50:25;;;;;;;14.00;6.30;;;21.20;65.40;;;;;;212015;1316;22605;-60
2022/12/24 00:55:29;;;;;;;12.00;5.90;;;21.20;65.30;;;;;;211991;1308;22566;-61
2022/12/24 01:00:33;;;;;;;13.70;6.80;;;21.10;65.20;;;;;;211684;1302;22536;-58
2022/12/24 01:05:37;;;;;;;13.00;6.40;;;21.20;65.10;;;;;;212227;1309;22528;-60
2022/12/24 01:10:41;;;;;;;11.90;6.20;;;21.10;64.90;;;;;;211799;1309;22484;-60
2022/12/24 01:15:45;;;;;;;12.90;6.00;;;21.10;64.80;;;;;;213759;1316;23897;-61
2022/12/24 01:20:58;;;;;;;15.10;6.90;;;21.00;64.60;;;;;;212340;1306;24878;-61
2022/12/24 01:26:04;;;;;;;13.50;6.10;;;21.00;64.60;;;;;;212165;1312;22520;-57
2022/12/24 01:31:14;;;;;;;11.90;6.10;;;21.00;64.60;;;;;;212052;1310;22649;-61
2022/12/24 01:36:18;;;;;;;11.20;5.50;;;21.00;64.50;;;;;;211883;1299;25671;-62
2022/12/24 01:46:47;;;;;;;10.70;5.60;;;21.10;64.40;;;;;;211965;1303;22529;-61
2022/12/24 01:51:53;;;;;;;11.40;5.30;;;21.50;63.90;;;;;;212059;1302;22606;-60
2022/12/24 01:57:09;;;;;;;10.10;6.10;;;21.80;62.70;;;;;;211942;1300;26690;-59
2022/12/24 02:02:14;;;;;;;12.50;5.50;;;22.10;61.60;;;;;;212004;1315;22684;-59
2022/12/24 02:07:18;;;;;;;9.30;5.30;;;22.30;61.30;;;;;;212083;1310;22509;-60
2022/12/24 02:12:24;;;;;;;8.90;5.30;;;22.50;60.80;;;;;;211951;1294;24237;-61
2022/12/24 02:17:50;;;;;;;8.90;5.20;;;22.60;60.40;;;;;;212797;1310;25376;-60
2022/12/24 02:23:08;;;;;;;10.20;5.90;;;22.70;60.60;;;;;;211909;1315;22490;-60
2022/12/24 02:28:41;;;;;;;7.80;4.80;;;22.70;60.40;;;;;;212082;1309;22511;-60
2022/12/24 02:34:03;;;;;;;9.40;5.40;;;22.80;60.80;;;;;;212135;1309;22533;-60
2022/12/24 02:39:12;;;;;;;9.70;5.00;;;22.80;60.80;;;;;;212110;1298;25550;-60
2022/12/24 02:44:17;;;;;;;10.80;5.10;;;23.00;60.70;;;;;;212048;1290;22500;-61
2022/12/24 02:49:21;;;;;;;10.70;5.50;;;23.00;61.00;;;;;;212111;1299;25703;-61
2022/12/24 02:54:26;;;;;;;11.00;5.60;;;22.90;61.20;;;;;;211982;1291;22542;-61
2022/12/24 03:00:05;;;;;;;8.70;5.10;;;22.90;62.00;;;;;;212077;1309;22511;-61
2022/12/24 03:05:17;;;;;;;9.60;6.20;;;22.80;62.60;;;;;;211996;1305;22669;-62
2022/12/24 03:10:40;;;;;;;9.40;5.80;;;22.70;63.20;;;;;;212049;1305;24355;-61
2022/12/24 03:15:45;;;;;;;11.30;6.00;;;22.70;63.20;;;;;;211987;1296;22582;-62
2022/12/24 03:20:56;;;;;;;10.30;5.70;;;22.60;63.80;;;;;;212538;1309;22486;-61
2022/12/24 03:26:06;;;;;;;10.90;6.30;;;22.50;63.80;;;;;;212216;1308;22502;-61
2022/12/24 03:31:10;;;;;;;11.70;8.20;;;22.50;64.30;;;;;;211989;1303;24230;-60
2022/12/24 03:36:15;;;;;;;11.50;9.10;;;22.40;64.60;;;;;;211868;1309;23903;-60
2022/12/24 03:41:19;;;;;;;10.90;8.10;;;22.40;64.90;;;;;;212049;1314;23222;-61
2022/12/24 03:46:23;;;;;;;9.80;7.40;;;22.40;64.80;;;;;;211999;1303;23157;-61
2022/12/24 03:51:27;;;;;;;9.80;7.10;;;22.30;64.80;;;;;;211831;1315;22658;-60
2022/12/24 03:56:31;;;;;;;10.20;6.60;;;22.30;64.50;;;;;;212179;1304;22483;-64
2022/12/24 04:01:35;;;;;;;8.50;5.60;;;22.20;64.80;;;;;;212138;1312;24076;-61
2022/12/24 04:06:40;;;;;;;11.00;6.40;;;22.20;64.40;;;;;;212006;1296;22488;-61
2022/12/24 04:11:44;;;;;;;7.90;5.70;;;22.10;64.30;;;;;;212018;1310;24065;-61
2022/12/24 04:16:48;;;;;;;9.40;5.90;;;22.00;64.10;;;;;;212138;1290;22559;-60
2022/12/24 04:21:53;;;;;;;8.20;5.50;;;22.00;64.40;;;;;;212266;1297;22517;-61
2022/12/24 04:26:57;;;;;;;8.40;5.70;;;22.00;64.50;;;;;;211914;1302;24265;-61
2022/12/24 04:32:01;;;;;;;8.00;5.30;;;21.90;63.80;;;;;;211862;1309;22486;-61
2022/12/24 04:37:05;;;;;;;10.30;5.20;;;21.90;63.70;;;;;;211985;1301;24791;-60
2022/12/24 04:42:09;;;;;;;7.50;4.60;;;21.90;63.70;;;;;;211972;1310;24227;-58
2022/12/24 04:47:13;;;;;;;10.60;4.10;;;21.80;63.60;;;;;;211961;1293;22691;-59
2022/12/24 04:52:18;;;;;;;8.70;4.50;;;21.80;63.60;;;;;;211840;1303;22479;-59
2022/12/24 04:57:22;;;;;;;7.60;4.80;;;21.80;63.50;;;;;;212064;1302;22471;-59
2022/12/24 05:02:26;;;;;;;8.10;4.20;;;21.70;63.60;;;;;;211987;1315;22637;-60
2022/12/24 05:07:30;;;;;;;7.10;4.10;;;21.70;63.50;;;;;;212102;1299;23085;-61
2022/12/24 05:12:34;;;;;;;6.80;4.10;;;21.60;63.50;;;;;;212031;1315;23903;-61
2022/12/24 05:17:38;;;;;;;6.60;3.90;;;21.60;63.50;;;;;;212524;1315;22541;-62
2022/12/24 05:28:05;;;;;;;6.70;3.70;;;21.50;63.40;;;;;;211907;1302;24862;-61
2022/12/24 05:33:09;;;;;;;6.30;4.10;;;21.60;63.50;;;;;;212125;1309;22479;-61
2022/12/24 05:38:13;;;;;;;5.30;3.70;;;21.50;63.50;;;;;;211586;1299;24312;-58
2022/12/24 05:43:18;;;;;;;5.80;3.70;;;21.50;63.40;;;;;;211889;1303;22495;-59
2022/12/24 05:48:22;;;;;;;6.40;3.70;;;21.50;63.50;;;;;;211925;1317;22764;-64
2022/12/24 05:53:26;;;;;;;6.30;3.60;;;21.40;63.30;;;;;;211954;1310;22545;-60
2022/12/24 05:58:30;;;;;;;6.10;3.60;;;21.40;63.40;;;;;;212099;1312;22621;-62
2022/12/24 06:03:34;;;;;;;6.60;4.10;;;21.40;63.50;;;;;;211974;1295;25343;-61
2022/12/24 06:08:40;;;;;;;4.90;3.20;;;21.40;63.90;;;;;;212070;1306;22829;-59
2022/12/24 06:13:44;;;;;;;6.60;3.50;;;21.30;63.60;;;;;;211816;1312;24309;-59
2022/12/24 06:18:48;;;;;;;5.60;3.20;;;21.30;63.60;;;;;;212170;1297;24261;-61
2022/12/24 06:23:52;;;;;;;5.70;3.30;;;21.30;63.60;;;;;;212023;1296;22867;-61
2022/12/24 06:28:57;;;;;;;4.20;2.70;;;21.20;63.50;;;;;;212070;1297;22509;-62
2022/12/24 06:34:00;;;;;;;4.30;3.00;;;21.20;63.50;;;;;;212238;1312;22618;-58
2022/12/24 06:39:05;;;;;;;4.80;3.30;;;21.20;63.40;;;;;;211896;1312;23632;-60
2022/12/24 06:44:08;;;;;;;4.20;2.50;;;21.20;63.40;;;;;;211969;1312;23896;-60
2022/12/24 06:49:13;;;;;;;4.80;3.20;;;21.20;63.50;;;;;;211813;1296;22482;-58
2022/12/24 06:54:17;;;;;;;5.30;2.80;;;21.10;63.60;;;;;;211893;1302;23892;-60
2022/12/24 06:59:20;;;;;;;5.10;2.90;;;21.20;63.70;;;;;;212125;1311;22963;-61
2022/12/24 07:04:24;;;;;;;4.70;2.60;;;21.40;63.30;;;;;;212090;1313;22477;-59
2022/12/24 07:09:30;;;;;;;5.10;3.10;;;21.80;62.40;;;;;;212013;1303;22491;-62
2022/12/24 07:14:34;;;;;;;5.80;3.20;;;22.10;61.40;;;;;;212281;1302;25319;-59
2022/12/24 07:19:38;;;;;;;4.30;2.90;;;22.30;60.90;;;;;;212201;1312;22502;-60
2022/12/24 07:24:42;;;;;;;5.10;3.10;;;22.40;60.30;;;;;;212177;1315;24397;-60
2022/12/24 07:29:47;;;;;;;4.10;2.60;;;22.60;60.00;;;;;;211948;1311;22573;-61
2022/12/24 07:34:51;;;;;;;4.60;2.70;;;22.70;59.80;;;;;;212135;1303;24440;-63
2022/12/24 07:39:55;;;;;;;5.10;2.70;;;22.70;59.50;;;;;;212164;1309;22563;-61
2022/12/24 07:44:59;;;;;;;5.30;2.60;;;22.70;59.50;;;;;;211989;1317;23056;-60
2022/12/24 07:50:04;;;;;;;8.20;2.40;;;22.70;59.90;;;;;;212199;1293;24309;-61
2022/12/24 07:55:09;;;;;;;5.40;2.60;;;22.80;59.60;;;;;;212105;1310;22598;-61
2022/12/24 08:00:13;;;;;;;4.20;2.80;;;22.90;59.30;;;;;;212101;1310;24372;-57
2022/12/24 08:05:17;;;;;;;9.10;2.70;;;22.90;59.40;;;;;;212048;1289;24263;-60
2022/12/24 08:10:22;;;;;;;7.60;2.60;;;22.90;59.50;;;;;;212273;1310;22494;-61
2022/12/24 08:15:26;;;;;;;3.80;2.40;;;22.90;59.80;;;;;;212288;1310;22616;-59
2022/12/24 08:20:30;;;;;;;5.70;3.00;;;23.00;59.40;;;;;;212279;1303;22507;-61
2022/12/24 08:25:35;;;;;;;11.20;2.90;;;23.00;59.40;;;;;;212054;1306;24988;-60
2022/12/24 08:30:40;;;;;;;7.90;2.30;;;22.90;59.50;;;;;;211992;1302;22523;-61
2022/12/24 08:35:52;;;;;;;14.20;2.90;;;22.90;59.70;;;;;;212039;1309;22492;-61
2022/12/24 08:40:56;;;;;;;8.00;2.80;;;22.80;60.00;;;;;;211902;1302;22654;-59
2022/12/24 08:46:04;;;;;;;6.40;2.60;;;22.70;60.10;;;;;;212029;1307;22530;-60
2022/12/24 08:51:10;;;;;;;6.40;2.70;;;22.60;60.70;;;;;;211848;1296;25515;-59
2022/12/24 08:56:14;;;;;;;4.30;2.10;;;22.60;60.50;;;;;;211870;1299;24334;-58
2022/12/24 09:01:19;;;;;;;8.10;2.50;;;22.50;60.70;;;;;;211926;1315;25256;-61
2022/12/24 09:06:27;;;;;;;4.20;2.30;;;22.40;60.70;;;;;;211737;1306;24217;-58
2022/12/24 09:11:34;;;;;;;6.00;2.80;;;22.40;61.00;;;;;;211840;1289;22485;-59
2022/12/24 09:16:38;;;;;;;8.00;2.80;;;22.40;61.00;;;;;;211250;1312;22865;-59
2022/12/24 09:21:43;;;;;;;12.10;3.30;;;22.40;61.50;;;;;;211572;1297;26812;-59
2022/12/24 09:26:48;;;;;;;15.80;3.10;;;22.40;62.50;;;;;;211838;1314;22651;-54
2022/12/24 09:32:00;;;;;;;12.20;2.50;;;22.30;63.50;;;;;;211853;1297;22497;-59
2022/12/24 09:37:04;;;;;;;10.60;3.00;;;22.20;62.80;;;;;;211855;1308;24427;-59
2022/12/24 09:42:37;;;;;;;5.70;2.40;;;22.10;62.70;;;;;;211902;1299;22827;-59
2022/12/24 09:47:47;;;;;;;8.30;2.60;;;22.00;62.80;;;;;;211897;1300;22540;-58
2022/12/24 09:52:53;;;;;;;5.90;2.30;;;22.00;63.00;;;;;;211709;1313;25184;-61
2022/12/24 09:57:59;;;;;;;6.40;2.70;;;22.00;63.60;;;;;;211636;1297;25248;-62
2022/12/24 10:03:17;;;;;;;3.90;2.20;;;22.00;62.80;;;;;;211554;1310;26626;-56
2022/12/24 10:08:38;;;;;;;10.00;3.20;;;21.90;63.80;;;;;;212035;1315;23069;-61
2022/12/24 10:14:11;;;;;;;5.80;3.00;;;21.90;63.90;;;;;;212032;1302;23032;-58
2022/12/24 10:19:21;;;;;;;8.60;2.80;;;21.80;64.00;;;;;;212091;1313;22500;-59
2022/12/24 10:24:41;;;;;;;8.40;3.10;;;21.80;63.80;;;;;;211989;1301;26718;-60
2022/12/24 10:30:02;;;;;;;7.90;3.50;;;21.80;63.80;;;;;;211928;1305;22489;-58
2022/12/24 10:35:16;;;;;;;6.00;3.00;;;21.90;63.80;;;;;;212001;1306;22570;-60
2022/12/24 10:40:40;;;;;;;10.70;3.40;;;21.80;63.00;;;;;;212126;1310;23990;-63
2022/12/24 10:45:47;;;;;;;5.40;3.30;;;21.90;62.70;;;;;;212034;1299;22491;-61
2022/12/24 10:51:01;;;;;;;6.70;3.50;;;21.90;63.30;;;;;;211999;1312;22492;-62
2022/12/24 10:56:09;;;;;;;15.30;5.10;;;21.90;63.30;;;;;;212102;1293;22476;-62
2022/12/24 11:01:13;;;;;;;27.70;10.50;;;21.90;62.70;;;;;;211968;1297;25209;-61
2022/12/24 11:06:19;;;;;;;44.00;16.20;;;21.90;62.80;;;;;;212019;1310;22470;-60
2022/12/24 11:11:24;;;;;;;73.80;30.40;;;21.90;64.60;;;;;;211669;1317;22632;-63
2022/12/24 11:16:32;;;;;;;58.40;21.30;;;21.90;63.60;;;;;;211690;1310;24449;-58
2022/12/24 11:21:40;;;;;;;56.40;21.60;;;21.90;63.40;;;;;;212037;1315;25391;-59
2022/12/24 11:26:44;;;;;;;53.90;21.20;;;21.80;63.10;;;;;;211925;1318;24405;-59
2022/12/24 11:31:51;;;;;;;48.00;19.50;;;21.80;62.90;;;;;;212000;1306;22846;-61
2022/12/24 11:37:08;;;;;;;48.20;18.70;;;21.70;63.20;;;;;;211954;1313;22469;-60
2022/12/24 11:42:35;;;;;;;42.80;16.50;;;21.70;62.10;;;;;;211849;1303;25228;-60
2022/12/24 11:47:40;;;;;;;39.60;14.50;;;21.70;62.70;;;;;;211844;1310;24330;-58
2022/12/24 11:52:50;;;;;;;34.90;14.10;;;21.70;62.40;;;;;;212081;1309;23711;-57
2022/12/24 11:58:20;;;;;;;33.70;14.00;;;21.70;62.30;;;;;;211697;1303;24259;-59
2022/12/24 12:03:32;;;;;;;33.60;14.20;;;21.60;62.50;;;;;;213598;1303;24256;-57
2022/12/24 12:08:38;;;;;;;32.70;12.00;;;21.70;62.10;;;;;;212621;1299;24254;-58
2022/12/24 12:13:44;;;;;;;31.80;12.60;;;21.60;61.80;;;;;;212030;1299;176706;-61
2022/12/24 12:19:02;;;;;;;27.20;11.50;;;21.60;61.90;;;;;;211892;1311;25353;-59
2022/12/24 12:24:15;;;;;;;21.50;9.60;;;21.70;61.70;;;;;;212013;1296;22511;-56
2022/12/24 12:29:33;;;;;;;24.30;9.80;;;21.60;62.10;;;;;;211914;1303;22501;-56
2022/12/24 12:34:37;;;;;;;23.00;9.30;;;21.60;61.60;;;;;;212154;1299;22497;-54
2022/12/24 12:39:41;;;;;;;19.00;9.30;;;21.50;61.80;;;;;;212056;1293;23209;-53
2022/12/24 12:45:00;;;;;;;20.60;8.50;;;21.50;61.80;;;;;;212080;1299;23561;-57
2022/12/24 12:50:17;;;;;;;22.00;9.80;;;21.50;62.20;;;;;;211961;1302;23846;-56
2022/12/24 12:55:26;;;;;;;23.10;9.00;;;21.50;62.00;;;;;;211759;1310;22493;-51
2022/12/24 13:00:35;;;;;;;16.40;8.40;;;21.50;62.10;;;;;;213516;1317;25051;-52
2022/12/24 13:05:44;;;;;;;19.60;7.90;;;21.50;61.50;;;;;;212103;1302;22544;-53
2022/12/24 13:11:10;;;;;;;14.70;6.60;;;21.50;61.70;;;;;;211868;1310;22459;-52
2022/12/24 13:16:36;;;;;;;18.30;7.20;;;21.40;61.90;;;;;;212064;1299;24514;-54
2022/12/24 13:21:44;;;;;;;13.80;7.10;;;21.40;61.80;;;;;;212099;1296;24335;-55
2022/12/24 13:27:15;;;;;;;15.60;6.50;;;21.40;61.70;;;;;;212008;1309;22761;-52
2022/12/24 13:32:19;;;;;;;26.50;11.60;;;21.40;61.90;;;;;;211995;1301;22485;-50
2022/12/24 13:37:33;;;;;;;103.30;40.40;;;21.40;61.00;;;;;;212039;1303;22487;-57
2022/12/24 13:43:03;;;;;;;120.90;49.10;;;21.40;61.80;;;;;;211955;1305;22476;-54
2022/12/24 13:48:07;;;;;;;124.40;51.00;;;21.40;61.70;;;;;;212092;1306;24424;-58
2022/12/24 13:53:31;;;;;;;123.30;52.60;;;21.40;61.20;;;;;;212071;1312;22490;-57
2022/12/24 13:58:40;;;;;;;119.80;51.00;;;21.40;62.40;;;;;;211823;1315;22556;-50
2022/12/24 14:03:51;;;;;;;111.40;49.00;;;21.40;61.90;;;;;;211999;1295;24259;-51
2022/12/24 14:09:04;;;;;;;103.90;45.20;;;21.40;61.70;;;;;;211948;1303;23366;-52
2022/12/24 14:14:11;;;;;;;101.60;44.20;;;21.40;61.50;;;;;;212091;1299;22730;-53
2022/12/24 14:19:31;;;;;;;91.70;42.00;;;21.30;61.70;;;;;;211614;1317;25637;-55
2022/12/24 14:24:49;;;;;;;92.50;39.30;;;21.30;61.30;;;;;;211662;1317;24249;-55
2022/12/24 14:30:19;;;;;;;87.90;37.80;;;21.30;61.70;;;;;;212169;1310;23899;-52
2022/12/24 14:35:34;;;;;;;81.00;34.20;;;21.30;61.40;;;;;;211920;1317;22623;-54
2022/12/24 14:41:19;;;;;;;77.50;31.60;;;21.30;61.30;;;;;;212175;1314;25295;-56
2022/12/24 14:46:27;;;;;;;75.10;32.40;;;21.30;61.10;;;;;;212145;1317;25675;-55
2022/12/24 14:51:40;;;;;;;69.70;29.10;;;21.30;61.10;;;;;;212212;1308;27272;-57
2022/12/24 14:56:44;;;;;;;65.60;26.70;;;21.20;61.00;;;;;;212154;1308;22483;-56
2022/12/24 15:01:48;;;;;;;62.30;25.30;;;21.20;61.40;;;;;;212139;1316;22942;-51
2022/12/24 15:06:56;;;;;;;55.30;26.30;;;21.20;61.50;;;;;;211527;1317;22464;-49
2022/12/24 15:12:03;;;;;;;61.80;26.70;;;21.20;60.70;;;;;;212473;1309;23334;-56
2022/12/24 15:17:09;;;;;;;53.90;25.30;;;21.20;61.00;;;;;;211875;1300;24203;-58
2022/12/24 15:22:21;;;;;;;57.50;22.80;;;21.20;60.80;;;;;;211747;1295;23311;-55
2022/12/24 15:27:31;;;;;;;59.50;20.70;;;21.20;60.80;;;;;;211755;1303;23001;-59
2022/12/24 15:32:35;;;;;;;48.30;20.10;;;21.20;60.60;;;;;;212694;1299;22496;-58
2022/12/24 15:37:41;;;;;;;38.90;19.30;;;21.20;61.10;;;;;;213408;1306;22482;-57
2022/12/24 15:42:45;;;;;;;43.90;20.80;;;21.10;61.00;;;;;;212028;1303;25583;-58
2022/12/24 15:48:05;;;;;;;38.20;18.50;;;21.10;61.00;;;;;;211636;1300;24314;-56
2022/12/24 15:53:21;;;;;;;38.20;17.60;;;21.30;60.70;;;;;;220735;1300;22701;-57
2022/12/24 15:58:29;;;;;;;34.30;16.40;;;21.50;60.00;;;;;;213108;1297;22481;-57
2022/12/24 16:03:36;;;;;;;35.20;17.60;;;21.70;60.00;;;;;;213016;1301;22487;-56
2022/12/24 16:08:42;;;;;;;28.80;15.40;;;21.80;59.60;;;;;;212220;1315;24522;-57
2022/12/24 16:14:07;;;;;;;39.70;17.40;;;21.90;59.00;;;;;;212077;1298;24290;-56
2022/12/24 16:19:28;;;;;;;33.80;16.00;;;22.00;58.80;;;;;;212010;1305;22503;-57
2022/12/24 16:24:40;;;;;;;29.20;14.40;;;22.10;58.50;;;;;;211977;1304;23188;-57
2022/12/24 16:29:45;;;;;;;31.60;16.30;;;22.20;58.40;;;;;;212088;1295;22493;-55
2022/12/24 16:34:49;;;;;;;26.90;13.70;;;22.30;58.20;;;;;;212203;1300;24281;-58
2022/12/24 16:39:54;;;;;;;27.20;13.90;;;22.40;58.60;;;;;;212114;1308;22618;-57
2022/12/24 16:44:58;;;;;;;26.10;13.60;;;22.40;58.60;;;;;;212073;1303;24746;-58
2022/12/24 16:50:05;;;;;;;26.20;14.90;;;22.40;57.90;;;;;;211996;1296;24291;-58
2022/12/24 16:55:13;;;;;;;23.90;13.70;;;22.50;57.80;;;;;;211898;1300;24444;-56
2022/12/24 17:00:20;;;;;;;24.40;13.20;;;22.50;57.60;;;;;;211990;1313;22474;-58
2022/12/24 17:05:25;;;;;;;23.80;12.20;;;22.60;57.50;;;;;;212029;1305;22510;-57
2022/12/24 17:10:29;;;;;;;24.50;12.10;;;22.60;57.50;;;;;;212227;1315;22532;-56
2022/12/24 17:15:33;;;;;;;21.10;12.00;;;22.60;57.40;;;;;;212051;1312;23791;-57
2022/12/24 17:20:37;;;;;;;24.20;13.10;;;22.70;57.30;;;;;;212122;1303;24268;-57
2022/12/24 17:25:41;;;;;;;20.20;10.90;;;22.70;57.20;;;;;;211990;1300;22483;-57
2022/12/24 17:30:45;;;;;;;19.60;10.80;;;22.70;57.10;;;;;;212343;1312;23722;-59
2022/12/24 17:35:51;;;;;;;19.20;11.00;;;22.70;57.00;;;;;;212183;1306;22591;-56
2022/12/24 17:41:07;;;;;;;19.50;10.60;;;22.80;57.10;;;;;;212064;1310;26638;-56
2022/12/24 17:46:22;;;;;;;18.80;11.10;;;22.90;57.00;;;;;;212064;1295;23017;-56
2022/12/24 17:51:27;;;;;;;19.60;11.20;;;22.90;56.90;;;;;;212181;1308;22681;-56
2022/12/24 17:56:31;;;;;;;18.80;11.70;;;22.90;56.80;;;;;;212267;1303;22491;-56
2022/12/24 18:01:35;;;;;;;23.10;11.90;;;22.90;56.70;;;;;;212147;1315;22577;-57
2022/12/24 18:06:40;;;;;;;19.60;9.70;;;23.00;56.70;;;;;;212144;1303;24301;-57
2022/12/24 18:11:51;;;;;;;16.70;10.80;;;23.00;56.60;;;;;;212487;1299;23964;-56
2022/12/24 18:16:55;;;;;;;19.70;10.20;;;23.00;56.60;;;;;;212038;1312;22501;-57
2022/12/24 18:21:59;;;;;;;18.90;10.40;;;23.00;56.50;;;;;;212043;1300;22493;-56
2022/12/24 18:27:03;;;;;;;16.00;9.40;;;23.10;56.50;;;;;;212153;1300;24230;-57
2022/12/24 18:32:07;;;;;;;15.00;8.90;;;23.10;56.50;;;;;;211970;1306;22498;-56
2022/12/24 18:37:11;;;;;;;15.00;9.10;;;23.10;56.40;;;;;;212104;1315;22478;-57
2022/12/24 18:42:15;;;;;;;15.20;8.70;;;23.10;56.50;;;;;;212034;1302;22857;-57
2022/12/24 18:47:19;;;;;;;17.40;9.40;;;23.00;56.60;;;;;;212172;1312;24017;-57
2022/12/24 18:52:26;;;;;;;15.30;8.80;;;22.90;56.80;;;;;;212167;1303;22723;-57
2022/12/24 18:57:31;;;;;;;15.70;9.20;;;22.90;57.00;;;;;;212061;1308;22516;-59
2022/12/24 19:02:35;;;;;;;15.60;9.60;;;22.70;57.20;;;;;;212075;1315;22600;-56
2022/12/24 19:07:40;;;;;;;13.10;9.20;;;22.70;57.40;;;;;;212282;1297;24256;-58
2022/12/24 19:12:44;;;;;;;12.90;8.70;;;22.60;57.60;;;;;;212058;1303;24250;-57
2022/12/24 19:17:53;;;;;;;12.40;8.30;;;22.50;57.70;;;;;;212092;1308;22616;-57
2022/12/24 19:22:57;;;;;;;12.70;8.50;;;22.50;57.80;;;;;;212029;1302;24227;-58
2022/12/24 19:28:08;;;;;;;14.10;9.10;;;22.40;57.90;;;;;;212016;1317;22475;-57
2022/12/24 19:33:12;;;;;;;13.00;7.60;;;22.40;57.90;;;;;;212091;1317;22483;-57
2022/12/24 19:38:16;;;;;;;15.30;8.90;;;22.30;58.50;;;;;;212057;1295;22598;-57
2022/12/24 19:43:20;;;;;;;14.90;8.40;;;22.30;58.30;;;;;;212070;1296;23095;-57
2022/12/24 19:48:24;;;;;;;15.00;9.30;;;22.20;58.40;;;;;;212031;1316;22562;-57
2022/12/24 19:53:29;;;;;;;13.50;8.00;;;22.10;58.40;;;;;;211977;1296;22506;-57
2022/12/24 19:58:34;;;;;;;12.70;7.80;;;22.00;58.50;;;;;;212040;1294;22715;-55
2022/12/24 20:03:38;;;;;;;13.30;7.90;;;22.00;58.60;;;;;;211987;1302;24428;-57
2022/12/24 20:08:42;;;;;;;14.30;7.80;;;21.90;58.70;;;;;;212237;1298;22498;-57
2022/12/24 20:13:46;;;;;;;13.90;8.00;;;21.90;58.70;;;;;;212031;1310;24520;-54
2022/12/24 20:18:53;;;;;;;12.60;7.20;;;21.90;58.90;;;;;;212229;1309;25427;-56
2022/12/24 20:23:57;;;;;;;12.80;7.60;;;21.80;58.80;;;;;;211895;1315;25388;-56
2022/12/24 20:29:08;;;;;;;12.40;7.40;;;21.70;59.00;;;;;;212077;1300;22479;-56
2022/12/24 20:34:12;;;;;;;13.70;7.10;;;21.70;59.30;;;;;;212222;1303;25253;-57
2022/12/24 20:39:16;;;;;;;11.70;7.50;;;21.70;59.10;;;;;;212162;1311;22471;-57
2022/12/24 20:44:20;;;;;;;12.60;7.40;;;21.60;59.10;;;;;;212172;1312;22522;-58
2022/12/24 20:49:24;;;;;;;10.30;7.00;;;21.60;59.10;;;;;;212062;1303;22493;-57
2022/12/24 20:54:28;;;;;;;11.10;6.80;;;21.60;59.20;;;;;;211892;1317;22662;-58
2022/12/24 20:59:32;;;;;;;10.80;7.10;;;21.50;59.60;;;;;;212114;1305;22493;-57
2022/12/24 21:04:36;;;;;;;11.60;7.00;;;21.50;59.20;;;;;;212080;1305;23390;-57
2022/12/24 21:09:40;;;;;;;11.00;7.10;;;21.50;59.20;;;;;;212155;1312;22553;-57
2022/12/24 21:14:44;;;;;;;8.70;6.00;;;21.50;59.20;;;;;;212154;1307;25409;-58
2022/12/24 21:19:48;;;;;;;10.30;6.70;;;21.40;59.10;;;;;;212030;1315;22561;-58
2022/12/24 21:24:53;;;;;;;11.00;6.40;;;21.40;59.20;;;;;;212147;1313;22561;-58
2022/12/24 21:29:58;;;;;;;9.90;5.50;;;21.30;59.20;;;;;;212223;1312;23615;-57
2022/12/24 21:35:03;;;;;;;8.70;5.50;;;21.40;59.10;;;;;;212433;1310;24368;-57
2022/12/24 21:40:09;;;;;;;11.40;6.60;;;21.70;58.60;;;;;;212032;1303;24260;-58
2022/12/24 21:45:12;;;;;;;9.90;6.10;;;21.90;58.00;;;;;;211965;1296;22480;-58
2022/12/24 21:55:39;;;;;;;7.60;4.80;;;22.30;57.30;;;;;;212238;1294;22472;-58
2022/12/24 22:00:43;;;;;;;8.60;5.60;;;22.30;57.00;;;;;;212002;1315;22489;-57
2022/12/24 22:05:47;;;;;;;8.10;5.60;;;22.40;56.80;;;;;;212092;1312;23144;-57
2022/12/24 22:11:46;;;;;;;8.60;5.50;;;22.50;56.50;;;;;;212319;1296;22658;-57
2022/12/24 22:16:30;;;;;;;7.10;5.40;;;22.60;56.80;;;;;;212155;1308;22597;-58
2022/12/24 22:21:35;;;;;;;8.30;5.30;;;22.60;56.20;;;;;;212098;1297;23234;-57
2022/12/24 22:26:39;;;;;;;7.50;5.20;;;22.70;56.20;;;;;;212227;1294;22607;-56
2022/12/24 22:31:44;;;;;;;6.80;4.50;;;22.70;56.10;;;;;;212241;1300;22476;-60
2022/12/24 22:36:48;;;;;;;7.70;5.40;;;22.70;56.40;;;;;;212129;1315;22690;-57
2022/12/24 22:41:52;;;;;;;7.10;4.60;;;22.80;56.00;;;;;;212216;1305;22502;-58
2022/12/24 22:46:56;;;;;;;8.10;5.50;;;22.80;55.90;;;;;;212219;1310;22546;-56
2022/12/24 22:52:01;;;;;;;8.60;4.90;;;22.90;55.90;;;;;;212255;1297;22578;-57
2022/12/24 22:57:05;;;;;;;8.70;5.50;;;22.90;56.10;;;;;;212102;1313;23991;-56
2022/12/24 23:02:10;;;;;;;6.10;4.50;;;22.90;55.60;;;;;;212008;1309;22472;-56
2022/12/24 23:07:14;;;;;;;7.20;5.00;;;23.00;55.60;;;;;;212170;1303;24445;-56
2022/12/24 23:14:55;;;;;;;6.40;4.70;;;23.00;55.60;;;;;;211959;1306;22592;-57
2022/12/24 23:17:42;;;;;;;6.60;4.30;;;23.00;55.50;;;;;;212177;1315;24063;-59
2022/12/24 23:22:47;;;;;;;7.60;4.50;;;23.10;55.40;;;;;;212341;1296;22488;-58
2022/12/24 23:27:50;;;;;;;6.60;4.40;;;23.10;55.30;;;;;;212394;1303;23354;-57
2022/12/24 23:32:55;;;;;;;7.40;4.50;;;23.10;55.30;;;;;;212178;1304;22501;-57
2022/12/24 23:37:59;;;;;;;6.80;4.40;;;23.10;55.30;;;;;;212055;1307;22560;-57
2022/12/24 23:43:03;;;;;;;6.60;4.70;;;23.10;55.50;;;;;;211953;1305;23171;-56
2022/12/24 23:48:06;;;;;;;7.20;4.60;;;23.00;55.60;;;;;;211987;1310;23091;-57
2022/12/24 23:53:11;;;;;;;8.10;4.90;;;22.90;55.80;;;;;;212154;1302;23018;-58
2022/12/24 23:58:15;;;;;;;5.70;4.10;;;22.80;56.00;;;;;;212218;1296;22703;-57
